Aeroporto :
LOGIN :

Iscrizione | Disclaimer

   EN    FR    IT 

 










Sommario :    VFR   VFR Marginale   IFR   IFR Intensivo   IFR Molto Intensivo
Visibilità : 
Base nubi : 
>= 8 km
>= 3000ft
5 / 8 km
1000 / 3000 ft
1500m / 5 km
500 / 1000 ft
800 / 1500m
200 / 500 ft
< 800m
< 200 ft
Simboli :   Temporali  Nebbia  Neve Forte  Precipitazioni Forti  Vento > 20 kt
SIGMETs :   Varie  Temporali  Ghiacco  Turbolenza  Onda orograficha  Ceneri Vulcaniche






- Altitudine del aeroporto : 308 ft
- Codice IATA : POZ


EPPO - Poznan-Lawica

ULTIMO METAR :
  • 291900Z 34004KT 0900 R28/P2000 FG BKN002 00/00 Q1024

METARs OBSOLETI :
  • 291830Z 33004KT 1000 R28/P2000 BR BKN001 BKN041 01/00 Q1024
  • 291800Z 33004KT 1700 BR FEW002 BKN041 00/00 Q1024
  • 291730Z 32002KT 3700 BR FEW006 BKN044 01/01 Q1023
  • 291700Z 34010KT 4000 BR NSC 01/01 Q1023
  • 291630Z 01002KT 4500 BR NSC 01/01 Q1023

TAF AMD TAF EPPO
Valido dal 29 a 18 ore il 30 a 18 ore UTC


291830Z 2918/3018 03004KT 1600 BR BKN004
TEMPO 2918/2923 0800 FG BKN001
PROB40
TEMPO 2922/3002 0400 FZFG
BECMG 3010/3012 27010KT 7000 SCT012



MetMap, La meteo Aeronautica in un colpo d'occhio ! - Copyright ORBIFLY Dicembre 2007 - Disclaimer

ORBIFLY MET'MAP TEAM :

Programmazione e sviluppo : Alexandra Zaïnal
Concezione : Baudouin d'Aumeries
Aiuto per la programmazione : Marc-Olivier Méhu
Supporto tecnico e logistico : Manuel Goepfert
Aiuto per la traduzione : Arnaldo La Scala

Contatto : metmap@orbifly.com




FONTI E CREDITI :

   NOAA